Hasvik, Hasvik Airport (ENHK)

NameHasvik Airport
CityHasvik
CountryNorway
ICAOENHK
IATAHAA
Altitude7 m
CoordinatesGoogle Map
Live Air TrafficLiveATC.net
METARENHK 142050Z 25011KT 9999 BKN044 06/M01 Q1024
2018-12-14 20:50:00 Wind: West-Southwest (250°) 5.66 m/s - Visibility: > 10000 m - Temperature: 6 °C - Dew point: -1 °C - Humidity: 61.2% - Pressure: 1024 hPa
Statistics

The table below shows the detailed information of all flights to/from Hasvik, Hasvik Airport (ENHK).